createdAt,value
2022-08-22T00:02:11.410Z,17.03
2022-08-22T00:02:53.141Z,17.79
2022-08-22T00:02:55.897Z,17.78
2022-08-22T00:03:02.382Z,17.91
2022-08-22T00:05:31.770Z,17.04
2022-08-22T00:09:20.891Z,17.05
2022-08-22T00:12:15.624Z,17.08
2022-08-22T00:15:43.048Z,17.07
2022-08-22T00:18:46.157Z,17.06
2022-08-22T00:21:40.699Z,17.05
2022-08-22T00:24:26.639Z,17.03
2022-08-22T00:27:10.074Z,16.96
2022-08-22T00:29:50.274Z,16.93
2022-08-22T00:32:35.212Z,16.93
2022-08-22T00:35:24.830Z,16.92
2022-08-22T00:38:31.477Z,16.89
2022-08-22T00:41:18.191Z,16.88
2022-08-22T00:43:54.834Z,16.88
2022-08-22T00:46:41.807Z,16.86
2022-08-22T00:49:34.399Z,16.82
2022-08-22T00:52:22.308Z,16.79
2022-08-22T00:55:11.982Z,16.79
2022-08-22T00:57:43.508Z,16.78
2022-08-22T01:00:14.413Z,16.76
2022-08-22T01:03:01.716Z,16.74
2022-08-22T01:06:04.008Z,16.73
2022-08-22T01:08:51.585Z,16.72
2022-08-22T01:12:07.512Z,16.72
2022-08-22T01:14:53.342Z,16.71
2022-08-22T01:17:33.463Z,16.69
2022-08-22T01:20:42.918Z,16.66
2022-08-22T01:23:47.565Z,16.61
2022-08-22T01:26:41.290Z,16.56
2022-08-22T01:29:40.424Z,16.51
2022-08-22T01:32:31.325Z,16.49
2022-08-22T01:35:20.912Z,16.45
2022-08-22T01:38:20.691Z,16.44
2022-08-22T01:41:10.465Z,16.39
2022-08-22T01:43:59.684Z,16.33
2022-08-22T01:47:02.059Z,16.23
2022-08-22T01:49:49.299Z,16.19
2022-08-22T01:52:43.291Z,16.19
2022-08-22T01:55:25.027Z,16.23
2022-08-22T01:58:27.974Z,16.24
2022-08-22T02:01:28.752Z,16.22
2022-08-22T02:08:26.572Z,16.19
2022-08-22T02:11:53.594Z,16.16
2022-08-22T02:15:07.609Z,16.17
2022-08-22T02:18:29.063Z,16.14
2022-08-22T02:22:14.923Z,16.10
2022-08-22T02:26:10.177Z,16.08
2022-08-22T02:30:16.140Z,16.00
2022-08-22T02:33:56.045Z,15.96
2022-08-22T02:36:34.588Z,15.94
2022-08-22T02:39:13.269Z,15.93
2022-08-22T02:42:51.787Z,15.95
2022-08-22T02:46:52.593Z,15.91
2022-08-22T02:50:13.317Z,15.92
2022-08-22T03:02:39.946Z,16.00
2022-08-22T03:35:37.810Z,15.84
2022-08-22T03:42:30.468Z,15.93
2022-08-22T03:46:08.742Z,15.89
2022-08-22T03:49:13.869Z,15.84
2022-08-22T03:52:15.578Z,15.81
2022-08-22T04:03:19.820Z,15.77
2022-08-22T04:06:19.763Z,15.70
2022-08-22T04:09:49.569Z,15.66
2022-08-22T04:12:59.654Z,15.69
2022-08-22T04:15:56.356Z,15.61
2022-08-22T04:19:02.325Z,15.58
2022-08-22T04:21:42.815Z,15.60
2022-08-22T04:24:38.638Z,15.61
2022-08-22T04:27:40.764Z,15.63
2022-08-22T04:30:31.462Z,15.63
2022-08-22T04:33:53.955Z,15.65
2022-08-22T04:36:48.028Z,15.56
2022-08-22T04:39:28.752Z,15.47
2022-08-22T04:42:36.372Z,15.41
2022-08-22T04:45:12.525Z,15.39
2022-08-22T04:48:05.190Z,15.37
2022-08-22T04:50:43.317Z,15.35
2022-08-22T04:53:33.118Z,15.34
2022-08-22T04:56:25.038Z,15.35
2022-08-22T04:59:03.512Z,15.41
2022-08-22T05:01:55.325Z,15.41
2022-08-22T05:04:38.160Z,15.31
2022-08-22T05:07:12.597Z,15.22
2022-08-22T05:09:46.361Z,15.18
2022-08-22T05:12:21.949Z,15.13
2022-08-22T05:14:55.202Z,15.07
2022-08-22T05:17:26.988Z,15.01
2022-08-22T05:19:58.929Z,15.00
2022-08-22T05:22:36.784Z,15.05
2022-08-22T05:25:11.785Z,15.16
2022-08-22T05:27:45.080Z,15.16
2022-08-22T05:30:21.059Z,15.20
2022-08-22T05:33:18.983Z,15.23
2022-08-22T05:35:58.173Z,15.29
2022-08-22T05:38:32.716Z,15.28
2022-08-22T05:41:06.560Z,15.26
2022-08-22T05:43:41.188Z,15.21
2022-08-22T05:46:26.189Z,15.24
2022-08-22T05:49:00.050Z,15.22
2022-08-22T05:51:44.523Z,15.21
2022-08-22T05:54:19.981Z,15.16
2022-08-22T05:57:13.378Z,15.18
2022-08-22T05:59:47.793Z,15.12
2022-08-22T06:02:22.653Z,15.11
2022-08-22T06:04:59.182Z,15.17
2022-08-22T06:07:40.360Z,15.19
2022-08-22T06:10:22.758Z,15.19
2022-08-22T06:12:55.984Z,15.21
2022-08-22T06:15:49.296Z,15.23
2022-08-22T06:18:22.761Z,15.27
2022-08-22T06:21:39.384Z,15.26
2022-08-22T06:25:11.317Z,15.30
2022-08-22T06:36:30.519Z,15.45
2022-08-22T06:44:49.019Z,15.53
2022-08-22T07:04:26.917Z,15.77
2022-08-22T07:07:01.006Z,15.77
2022-08-22T07:10:00.333Z,15.73
2022-08-22T07:12:53.359Z,15.68
2022-08-22T07:15:43.296Z,15.63
2022-08-22T07:18:21.794Z,15.57
2022-08-22T07:21:01.165Z,15.52
2022-08-22T07:23:52.245Z,15.45
2022-08-22T07:27:40.193Z,15.45
2022-08-22T07:30:27.272Z,15.46
2022-08-22T07:33:26.173Z,15.44
2022-08-22T07:36:33.827Z,15.39
2022-08-22T07:39:30.107Z,15.40
2022-08-22T07:42:24.989Z,15.42
2022-08-22T07:45:43.455Z,15.45
2022-08-22T07:54:57.721Z,15.50
2022-08-22T07:57:36.226Z,15.47
2022-08-22T08:00:12.485Z,15.50
2022-08-22T08:03:07.023Z,15.55
2022-08-22T08:05:38.380Z,15.56
2022-08-22T08:08:20.258Z,15.60
2022-08-22T08:10:51.486Z,15.64
2022-08-22T08:13:24.816Z,15.64
2022-08-22T08:15:53.269Z,15.61
2022-08-22T08:18:26.463Z,15.65
2022-08-22T08:20:59.368Z,15.64
2022-08-22T08:23:33.045Z,15.67
2022-08-22T08:26:18.352Z,15.73
2022-08-22T08:28:57.576Z,15.85
2022-08-22T08:31:39.833Z,15.95
2022-08-22T08:34:26.831Z,16.07
2022-08-22T08:36:57.864Z,16.15
2022-08-22T08:39:37.429Z,16.20
2022-08-22T08:42:23.443Z,16.27
2022-08-22T08:45:06.851Z,16.34
2022-08-22T08:48:09.408Z,16.38
2022-08-22T08:51:18.671Z,16.36
2022-08-22T08:54:09.028Z,16.29
2022-08-22T08:57:15.678Z,16.24
2022-08-22T09:00:14.721Z,16.27
2022-08-22T09:02:42.692Z,16.23
2022-08-22T09:05:16.761Z,16.25
2022-08-22T09:08:27.623Z,16.20
2022-08-22T09:11:34.336Z,16.16
2022-08-22T09:14:48.096Z,16.17
2022-08-22T09:17:31.966Z,16.17
2022-08-22T09:20:46.391Z,16.19
2022-08-22T09:23:24.232Z,16.17
2022-08-22T09:26:37.449Z,16.19
2022-08-22T09:29:30.113Z,16.20
2022-08-22T09:32:14.188Z,16.21
2022-08-22T09:34:53.235Z,16.21
2022-08-22T09:37:28.848Z,16.20
2022-08-22T09:40:17.488Z,16.19
2022-08-22T09:43:02.910Z,16.21
2022-08-22T09:46:06.573Z,16.20
2022-08-22T09:48:42.735Z,16.22
2022-08-22T09:51:31.456Z,16.20
2022-08-22T09:54:31.158Z,16.25
2022-08-22T09:57:27.745Z,16.29
2022-08-22T10:00:22.481Z,16.38
2022-08-22T10:03:08.975Z,16.41
2022-08-22T10:06:05.541Z,16.44
2022-08-22T10:08:48.620Z,16.42
2022-08-22T10:11:34.409Z,16.36
2022-08-22T10:14:22.381Z,16.32
2022-08-22T10:17:21.880Z,16.32
2022-08-22T10:19:58.619Z,16.25
2022-08-22T10:22:49.923Z,16.19
2022-08-22T10:25:41.668Z,16.18
2022-08-22T10:28:31.369Z,16.23
2022-08-22T10:31:28.927Z,16.24
2022-08-22T10:34:10.512Z,16.19
2022-08-22T10:36:53.895Z,16.16
2022-08-22T10:39:30.720Z,16.17
2022-08-22T10:42:28.795Z,16.16
2022-08-22T10:45:36.783Z,16.17
2022-08-22T10:48:04.882Z,16.24
2022-08-22T10:51:04.362Z,16.26
2022-08-22T10:53:45.862Z,16.29
2022-08-22T10:56:28.922Z,16.31
2022-08-22T10:59:46.214Z,16.33
2022-08-22T11:02:21.223Z,16.39
2022-08-22T11:05:29.855Z,16.45
2022-08-22T11:08:20.385Z,16.43
2022-08-22T11:11:13.643Z,16.46
2022-08-22T11:14:19.344Z,16.49
2022-08-22T11:17:30.265Z,16.54
2022-08-22T11:20:19.745Z,16.66
2022-08-22T11:23:12.407Z,16.80
2022-08-22T11:25:58.235Z,16.89
2022-08-22T11:29:14.128Z,16.98
2022-08-22T11:31:51.536Z,17.00
2022-08-22T11:34:40.552Z,17.03
2022-08-22T11:37:24.091Z,17.06
2022-08-22T11:40:37.407Z,17.07
2022-08-22T11:43:39.884Z,17.06
2022-08-22T11:46:22.914Z,17.06
2022-08-22T11:49:15.824Z,16.98
2022-08-22T11:52:19.502Z,16.92
2022-08-22T11:55:05.525Z,16.90
2022-08-22T11:57:44.368Z,16.84
2022-08-22T12:00:20.770Z,16.84
2022-08-22T12:02:54.541Z,16.85
2022-08-22T12:05:29.492Z,16.88
2022-08-22T12:08:09.022Z,16.89
2022-08-22T12:11:12.631Z,16.87
2022-08-22T12:14:05.838Z,16.84
2022-08-22T12:16:45.232Z,16.81
2022-08-22T12:19:32.933Z,16.83
2022-08-22T12:22:19.323Z,16.89
2022-08-22T12:25:07.964Z,16.94
2022-08-22T12:27:48.063Z,16.93
2022-08-22T12:30:31.186Z,16.99
2022-08-22T12:33:25.822Z,17.03
2022-08-22T12:36:35.297Z,17.08
2022-08-22T12:39:15.151Z,17.12
2022-08-22T12:42:01.779Z,17.15
2022-08-22T12:44:47.086Z,17.18
2022-08-22T12:47:27.050Z,17.24
2022-08-22T12:50:12.926Z,17.24
2022-08-22T12:53:18.170Z,17.21
2022-08-22T12:56:11.989Z,17.17
2022-08-22T12:59:08.624Z,17.15
2022-08-22T13:01:43.490Z,17.12
2022-08-22T13:04:33.830Z,17.07
2022-08-22T13:07:42.242Z,17.07
2022-08-22T13:10:17.388Z,17.09
2022-08-22T13:12:52.184Z,17.06
2022-08-22T13:15:26.366Z,17.05
2022-08-22T13:18:13.205Z,17.04
2022-08-22T13:20:56.914Z,17.08
2022-08-22T13:23:42.686Z,17.11
2022-08-22T13:26:31.970Z,17.11
2022-08-22T13:29:39.687Z,17.14
2022-08-22T13:32:03.264Z,17.18
2022-08-22T13:35:03.185Z,17.17
2022-08-22T13:37:40.227Z,17.17
2022-08-22T13:40:32.263Z,17.20
2022-08-22T13:43:07.817Z,17.26
2022-08-22T13:45:46.186Z,17.24
2022-08-22T13:48:15.342Z,17.23
2022-08-22T13:51:12.378Z,17.26
2022-08-22T13:54:00.866Z,17.28
2022-08-22T13:56:50.775Z,17.29
2022-08-22T14:00:00.500Z,17.23
2022-08-22T14:02:44.442Z,17.23
2022-08-22T14:05:29.547Z,17.21
2022-08-22T14:08:13.036Z,17.20
2022-08-22T14:10:57.995Z,17.23
2022-08-22T14:13:39.957Z,17.22
2022-08-22T14:16:32.356Z,17.20
2022-08-22T14:19:11.410Z,17.16
2022-08-22T14:21:52.260Z,17.20
2022-08-22T14:24:28.300Z,17.19
2022-08-22T14:27:08.179Z,17.15
2022-08-22T14:29:42.270Z,17.12
2022-08-22T14:32:47.871Z,17.09
2022-08-22T14:35:23.569Z,17.09
2022-08-22T14:38:34.939Z,17.10
2022-08-22T14:41:09.151Z,17.10
2022-08-22T14:43:48.155Z,17.07
2022-08-22T14:46:26.599Z,17.04
2022-08-22T14:49:13.773Z,17.05
2022-08-22T14:52:10.238Z,17.07
2022-08-22T14:54:47.323Z,17.10
2022-08-22T14:57:22.198Z,17.13
2022-08-22T14:59:52.798Z,17.15
2022-08-22T15:02:30.748Z,17.16
2022-08-22T15:05:12.751Z,17.16
2022-08-22T15:07:40.756Z,17.13
2022-08-22T15:10:34.306Z,17.12
2022-08-22T15:13:07.789Z,17.14
2022-08-22T15:15:53.580Z,17.15
2022-08-22T15:18:23.739Z,17.16
2022-08-22T15:21:08.752Z,17.13
2022-08-22T15:23:45.320Z,17.12
2022-08-22T15:26:25.744Z,17.15
2022-08-22T15:29:02.615Z,17.12
2022-08-22T15:31:32.737Z,17.08
2022-08-22T15:34:13.560Z,17.02
2022-08-22T15:37:09.824Z,17.00
2022-08-22T15:40:08.388Z,17.01
2022-08-22T15:42:51.236Z,17.03
2022-08-22T15:45:33.966Z,17.06
2022-08-22T15:48:07.216Z,17.09
2022-08-22T15:50:39.787Z,17.10
2022-08-22T15:53:24.870Z,17.06
2022-08-22T15:56:32.347Z,17.05
2022-08-22T15:59:54.151Z,17.00
2022-08-22T16:02:35.263Z,17.01
2022-08-22T16:05:11.091Z,16.98
2022-08-22T16:07:43.951Z,16.96
2022-08-22T16:10:30.382Z,16.95
2022-08-22T16:13:38.138Z,16.94
2022-08-22T16:16:34.658Z,16.96
2022-08-22T16:19:02.996Z,16.97
2022-08-22T16:22:08.135Z,16.97
2022-08-22T16:25:03.021Z,17.00
2022-08-22T16:27:34.585Z,17.01
2022-08-22T16:30:09.498Z,16.99
2022-08-22T16:32:50.272Z,16.96
2022-08-22T16:36:17.043Z,16.93
2022-08-22T16:38:50.584Z,16.91
2022-08-22T16:41:41.570Z,16.89
2022-08-22T16:44:39.435Z,16.88
2022-08-22T16:47:21.609Z,16.85
2022-08-22T16:49:48.829Z,16.85
2022-08-22T16:52:28.201Z,16.83
2022-08-22T16:55:41.745Z,16.81
2022-08-22T16:58:35.706Z,16.82
2022-08-22T17:02:23.111Z,16.80
2022-08-22T17:09:05.105Z,16.81
2022-08-22T17:12:18.767Z,16.84
2022-08-22T17:15:47.868Z,16.83
2022-08-22T17:18:58.569Z,16.81
2022-08-22T17:21:57.297Z,16.83
2022-08-22T17:25:13.843Z,16.84
2022-08-22T17:28:34.185Z,16.82
2022-08-22T17:31:58.574Z,16.86
2022-08-22T17:34:56.745Z,16.85
2022-08-22T17:38:39.579Z,16.84
2022-08-22T17:41:26.788Z,16.84
2022-08-22T17:44:29.736Z,16.81
2022-08-22T17:47:06.898Z,16.78
2022-08-22T17:49:50.998Z,16.79
2022-08-22T17:52:33.265Z,16.79
2022-08-22T17:55:31.594Z,16.77
2022-08-22T17:58:37.546Z,16.73
2022-08-22T18:01:35.891Z,16.72
2022-08-22T18:04:10.698Z,16.72
2022-08-22T18:06:56.230Z,16.72
2022-08-22T18:10:07.030Z,16.70
2022-08-22T18:14:12.542Z,16.66
2022-08-22T18:18:29.542Z,16.64
2022-08-22T18:21:26.158Z,16.62
2022-08-22T18:23:54.257Z,16.60
2022-08-22T18:26:42.679Z,16.60
2022-08-22T18:29:13.064Z,16.58
2022-08-22T18:32:08.547Z,16.61
2022-08-22T18:35:09.934Z,16.66
2022-08-22T18:37:43.261Z,16.65
2022-08-22T18:40:21.483Z,16.61
2022-08-22T18:43:04.959Z,16.60
2022-08-22T18:45:57.364Z,16.60
2022-08-22T18:48:31.550Z,16.59
2022-08-22T18:51:25.365Z,16.58
2022-08-22T18:54:20.269Z,16.60
2022-08-22T18:56:54.262Z,16.61
2022-08-22T18:59:37.543Z,16.62
2022-08-22T19:02:40.746Z,16.61
2022-08-22T19:05:21.346Z,16.59
2022-08-22T19:08:18.798Z,16.57
2022-08-22T19:11:07.502Z,16.57
2022-08-22T19:13:51.497Z,16.57
2022-08-22T19:16:33.552Z,16.56
2022-08-22T19:19:09.180Z,16.56
2022-08-22T19:22:19.376Z,16.55
2022-08-22T19:25:05.930Z,16.54
2022-08-22T19:27:45.307Z,16.54
2022-08-22T19:30:44.457Z,16.53
2022-08-22T19:33:39.420Z,16.50
2022-08-22T19:36:30.611Z,16.50
2022-08-22T19:39:09.182Z,16.50
2022-08-22T19:41:56.580Z,16.49
2022-08-22T19:44:42.190Z,16.52
2022-08-22T19:47:21.345Z,16.52
2022-08-22T19:50:00.994Z,16.51
2022-08-22T19:52:28.986Z,16.51
2022-08-22T19:55:27.751Z,16.53
2022-08-22T19:58:32.812Z,16.49
2022-08-22T20:01:45.752Z,16.49
2022-08-22T20:04:35.331Z,16.50
2022-08-22T20:07:14.874Z,16.50
2022-08-22T20:09:54.364Z,16.49
2022-08-22T20:12:57.241Z,16.45
2022-08-22T20:15:27.645Z,16.42
2022-08-22T20:20:59.705Z,16.43
2022-08-22T20:23:32.591Z,16.41
2022-08-22T20:26:01.237Z,16.40
2022-08-22T20:28:48.468Z,16.39
2022-08-22T20:31:24.054Z,16.39
2022-08-22T20:33:58.328Z,16.40
2022-08-22T20:36:29.303Z,16.38
2022-08-22T20:39:09.040Z,16.36
2022-08-22T20:41:44.304Z,16.36
2022-08-22T20:44:28.352Z,16.36
2022-08-22T20:47:01.420Z,16.36
2022-08-22T20:49:56.973Z,16.35
2022-08-22T20:52:35.377Z,16.36
2022-08-22T20:55:08.606Z,16.36
2022-08-22T20:57:49.252Z,16.36
2022-08-22T21:00:28.305Z,16.33
2022-08-22T21:03:09.499Z,16.30
2022-08-22T21:05:41.709Z,16.31
2022-08-22T21:08:27.150Z,16.31
2022-08-22T21:11:22.939Z,16.30
2022-08-22T21:13:51.939Z,16.30
2022-08-22T21:16:33.161Z,16.29
2022-08-22T21:19:03.542Z,16.35
2022-08-22T21:21:39.192Z,16.33
2022-08-22T21:24:10.932Z,16.33
2022-08-22T21:27:02.425Z,16.35
2022-08-22T21:29:46.470Z,16.37
2022-08-22T21:32:51.161Z,16.37
2022-08-22T21:35:31.814Z,16.36
2022-08-22T21:38:04.359Z,16.39
2022-08-22T21:40:37.646Z,16.38
2022-08-22T21:43:11.649Z,16.39
2022-08-22T21:45:39.475Z,16.37
2022-08-22T21:48:35.036Z,16.35
2022-08-22T21:51:22.483Z,16.35
2022-08-22T21:54:16.113Z,16.37
2022-08-22T21:56:41.820Z,16.37
2022-08-22T21:59:52.198Z,16.35
2022-08-22T22:02:41.773Z,16.35
2022-08-22T22:05:15.521Z,16.36
2022-08-22T22:07:46.582Z,16.39
2022-08-22T22:10:18.400Z,16.40
2022-08-22T22:12:48.695Z,16.40
2022-08-22T22:15:21.661Z,16.40
2022-08-22T22:17:49.249Z,16.40
2022-08-22T22:20:18.539Z,16.39
2022-08-22T22:22:49.689Z,16.36
2022-08-22T22:25:40.346Z,16.38
2022-08-22T22:28:42.217Z,16.37
2022-08-22T22:31:13.739Z,16.36
2022-08-22T22:33:47.263Z,16.33
2022-08-22T22:36:33.399Z,16.27
2022-08-22T22:39:11.522Z,16.27
2022-08-22T22:41:43.179Z,16.27
2022-08-22T22:44:11.736Z,16.23
2022-08-22T22:46:42.920Z,16.24
2022-08-22T22:49:11.138Z,16.27
2022-08-22T22:51:40.552Z,16.25
2022-08-22T22:54:07.766Z,16.23
2022-08-22T22:56:39.380Z,16.18
2022-08-22T22:59:12.687Z,16.15
2022-08-22T23:02:08.887Z,16.13
2022-08-22T23:04:42.986Z,16.07
2022-08-22T23:07:16.492Z,16.04
2022-08-22T23:10:06.773Z,15.99
2022-08-22T23:12:39.065Z,16.01
2022-08-22T23:15:07.376Z,16.06
2022-08-22T23:17:40.817Z,16.08
2022-08-22T23:20:08.720Z,16.10
2022-08-22T23:22:36.066Z,16.10
2022-08-22T23:25:04.850Z,16.11
2022-08-22T23:27:33.563Z,16.14
2022-08-22T23:30:03.083Z,16.16
2022-08-22T23:32:31.334Z,16.19
2022-08-22T23:34:58.765Z,16.19
2022-08-22T23:37:26.029Z,16.15
2022-08-22T23:39:54.592Z,16.16
2022-08-22T23:42:21.962Z,16.19
2022-08-22T23:44:49.563Z,16.21
2022-08-22T23:47:20.238Z,16.25
2022-08-22T23:49:49.260Z,16.26
2022-08-22T23:52:16.691Z,16.26
2022-08-22T23:54:46.149Z,16.29
2022-08-22T23:57:15.971Z,16.33
2022-08-22T23:59:48.007Z,16.36
